This is the latest recevied weather packets stored in our database for station/object E20TWR-2. If no packets are shown the sender has not sent any weather packets the latest 10 day(s).
| Time | Temp. | Humidity | Pressure | Rain* | Wind** | Luminosity | Snow |
|---|---|---|---|---|---|---|---|
| 1788180511 | 30.56° C | 72% | 1010 hPa | - | - | 0 W/m² | - |
| 1788179887 | 30° C | 73% | 1010 hPa | - | - | 0 W/m² | - |
| 1788179264 | 30.56° C | 72% | 1010 hPa | - | - | 0 W/m² | - |
| 1788178640 | 30.56° C | 71% | 1010 hPa | - | - | 0 W/m² | - |
| 1788178575 | 30.56° C | 72% | 1010 hPa | - | - | 0 W/m² | - |
| 1788177951 | 30.56° C | 73% | 1009 hPa | - | - | 0 W/m² | - |
| 1788177327 | 31.11° C | 71% | 1009 hPa | - | - | 0 W/m² | - |
| 1788176703 | 31.11° C | 71% | 1009 hPa | - | - | 0 W/m² | - |
| 1788176079 | 30.56° C | 72% | 1009 hPa | - | - | 0 W/m² | - |
| 1788175455 | 31.11° C | 69% | 1009 hPa | - | - | 0 W/m² | - |
| 1788174831 | 31.11° C | 69% | 1009 hPa | - | - | 0 W/m² | - |
| 1788174207 | 31.11° C | 69% | 1009 hPa | - | - | 0 W/m² | - |
| 1788173583 | 31.11° C | 68% | 1009 hPa | - | - | 0 W/m² | - |
| 1788172960 | 31.11° C | 67% | 1009 hPa | - | - | 0 W/m² | - |
| 1788172335 | 31.67° C | 66% | 1009 hPa | - | - | 0 W/m² | - |
| 1788171711 | 31.67° C | 65% | 1009 hPa | - | - | 0 W/m² | - |
| 1788171088 | 31.67° C | 66% | 1008 hPa | - | - | 0 W/m² | - |
| 1788170464 | 31.67° C | 68% | 1008 hPa | - | - | 0 W/m² | - |
| 1788169840 | 32.22° C | 68% | 1008 hPa | - | - | 0 W/m² | - |
| 1788169216 | 31.67° C | 69% | 1008 hPa | - | - | 0 W/m² | - |
| 1788168592 | 31.67° C | 68% | 1008 hPa | - | - | 0 W/m² | - |
| 1788167968 | 32.22° C | 66% | 1008 hPa | - | - | 0 W/m² | - |
| 1788167344 | 32.22° C | 64% | 1008 hPa | - | - | 0 W/m² | - |
| 1788166720 | 32.22° C | 64% | 1008 hPa | - | - | 0 W/m² | - |
| 1788166096 | 31.67° C | 64% | 1008 hPa | - | - | 0 W/m² | - |
* Rain since midnight (hover to see other rain measurements)
** Current wind speed in m/s (hover to see current wind gust speed)